Terminal Aerodrome Forecast
Issued by NWS

Current Version | Previous Version | Text Only | Print | Product List | Glossary On
Versions: 1 2 3 4 5 6 7 8 9 10 11 12 13 14 15 16 17 18 19 20 21
310
FTUS41 KPHI 311120
TAFPNE
TAF
KPNE 311120Z 3112/0112 VRB02KT P6SM SCT015
     FM311300 35005KT P6SM FEW040
     FM311900 VRB05KT P6SM FEW040
     FM010100 VRB03KT P6SM SCT050=

USA.gov is the U.S. government's official web portal to all federal, state and local government web resources and services.